Time;durP1;ratioP1;P1;durP2;ratioP2;P2;SDS_P1;SDS_P2;PMS_P1;PMS_P2;Temp;Humidity;BMP_temperature;BMP_pressure;BME280_temperature;BME280_humidity;BME280_pressure;Samples;Min_cycle;Max_cycle;Signal;HPM_P1;HPM_P2
2023/08/17 00:01:46;;;;;;;;;5.00;5.00;;;;;20.05;73.83;100138.56;4977960;28;8867;-87
2023/08/17 00:04:14;;;;;;;;;7.40;7.00;;;;;20.05;73.84;100140.41;4978986;28;9550;-87
2023/08/17 00:06:42;;;;;;;;;6.60;5.00;;;;;20.03;73.90;100148.66;4978887;28;8867;-87
2023/08/17 00:09:10;;;;;;;;;8.00;7.00;;;;;20.02;73.83;100148.88;4979051;28;8844;-87
2023/08/17 00:11:37;;;;;;;;;8.00;7.00;;;;;20.02;73.88;100155.09;4979206;28;8829;-87
2023/08/17 00:14:05;;;;;;;;;7.40;7.40;;;;;20.01;74.26;100161.53;4979520;28;8853;-87
2023/08/17 00:16:33;;;;;;;;;8.00;8.00;;;;;20.00;74.21;100170.66;4979173;28;8856;-87
2023/08/17 00:19:01;;;;;;;;;7.00;7.00;;;;;19.99;73.90;100171.69;4979002;28;8931;-87
2023/08/17 00:21:28;;;;;;;;;7.00;5.00;;;;;19.98;74.00;100178.13;4979093;28;8864;-87
2023/08/17 00:23:56;;;;;;;;;4.60;4.00;;;;;19.95;74.38;100174.91;4979187;28;8860;-87
2023/08/17 00:26:25;;;;;;;;;6.60;6.60;;;;;19.92;74.43;100180.66;4978902;28;8939;-87
2023/08/17 00:28:53;;;;;;;;;6.60;5.00;;;;;19.88;74.46;100190.16;4978472;28;8848;-87
2023/08/17 00:31:21;;;;;;;;;7.00;7.00;;;;;19.85;74.21;100196.75;4978831;28;8967;-87
2023/08/17 00:33:48;;;;;;;;;7.40;5.40;;;;;19.81;74.61;100194.56;4978923;28;8836;-87
2023/08/17 00:36:16;;;;;;;;;4.40;4.20;;;;;19.77;74.68;100195.91;4978922;28;8840;-87
2023/08/17 00:38:44;;;;;;;;;6.20;5.80;;;;;19.72;74.37;100207.25;4979434;28;8867;-87
2023/08/17 00:41:11;;;;;;;;;7.20;6.20;;;;;19.68;74.66;100215.88;4979060;28;8859;-87
2023/08/17 00:43:39;;;;;;;;;5.00;5.00;;;;;19.62;74.80;100211.16;4978724;28;8851;-87
2023/08/17 00:46:07;;;;;;;;;9.00;6.60;;;;;19.57;75.13;100208.16;4978487;28;9531;-87
2023/08/17 00:48:34;;;;;;;;;4.20;4.20;;;;;19.51;74.80;100209.66;4979045;28;8840;-87
2023/08/17 00:51:02;;;;;;;;;4.80;4.80;;;;;19.46;75.05;100211.22;4979060;28;8852;-88
2023/08/17 00:53:29;;;;;;;;;4.00;3.60;;;;;19.38;75.59;100195.03;4979078;28;8856;-88
2023/08/17 00:55:57;;;;;;;;;6.60;5.40;;;;;19.31;75.45;100202.13;4978651;28;8840;-87
2023/08/17 00:58:25;;;;;;;;;8.20;7.60;;;;;19.26;75.55;100209.91;4978626;28;8848;-87
2023/08/17 01:00:53;;;;;;;;;6.20;6.20;;;;;19.21;75.87;100205.00;4978726;28;8850;-88
2023/08/17 01:03:20;;;;;;;;;6.60;5.80;;;;;19.17;75.84;100206.34;4978182;28;8855;-88
2023/08/17 01:05:48;;;;;;;;;7.60;7.20;;;;;19.14;76.18;100206.69;4978762;28;8849;-88
2023/08/17 01:08:16;;;;;;;;;6.80;5.40;;;;;19.10;76.10;100212.56;4978500;28;8836;-88
2023/08/17 01:10:43;;;;;;;;;6.80;6.80;;;;;19.08;75.86;100212.75;4978521;28;8883;-88
2023/08/17 01:13:11;;;;;;;;;7.60;7.00;;;;;19.04;75.71;100210.56;4978353;28;8845;-88
2023/08/17 01:15:38;;;;;;;;;6.80;6.80;;;;;19.02;75.76;100209.88;4978099;28;8852;-88
2023/08/17 01:18:06;;;;;;;;;6.60;6.60;;;;;19.00;76.33;100210.06;4978305;28;8844;-88
2023/08/17 01:20:35;;;;;;;;;7.20;7.00;;;;;19.00;75.94;100204.66;4978222;28;8867;-87
2023/08/17 01:23:02;;;;;;;;;6.00;5.80;;;;;18.98;76.02;100195.88;4977777;28;8829;-88
2023/08/17 01:25:30;;;;;;;;;7.00;7.00;;;;;18.96;76.32;100186.28;4978189;28;8876;-88
2023/08/17 01:27:58;;;;;;;;;7.00;6.20;;;;;18.92;76.02;100169.56;4977983;28;8837;-87
2023/08/17 01:30:26;;;;;;;;;6.80;6.80;;;;;18.88;76.59;100168.22;4978502;28;9545;-88
2023/08/17 01:32:54;;;;;;;;;7.60;7.60;;;;;18.88;76.31;100160.13;4977819;28;8821;-88
2023/08/17 01:35:22;;;;;;;;;6.20;5.40;;;;;18.87;76.56;100155.72;4978091;28;8848;-89
2023/08/17 01:37:49;;;;;;;;;7.00;7.00;;;;;18.86;76.16;100143.25;4978116;28;8861;-88
2023/08/17 01:40:17;;;;;;;;;7.00;6.80;;;;;18.84;76.41;100125.53;4977872;28;8880;-89
2023/08/17 01:42:45;;;;;;;;;8.00;8.00;;;;;18.83;76.77;100132.78;4977990;28;8840;-88
2023/08/17 01:45:12;;;;;;;;;4.00;3.60;;;;;18.81;76.56;100118.63;4977667;28;8837;-88
2023/08/17 01:47:40;;;;;;;;;8.40;6.60;;;;;18.78;76.96;100123.50;4977822;28;8829;-88
2023/08/17 01:50:07;;;;;;;;;8.80;7.00;;;;;18.74;76.57;100128.41;4977779;28;8878;-89
2023/08/17 01:52:35;;;;;;;;;9.00;9.00;;;;;18.72;76.58;100129.56;4977729;28;8841;-88
2023/08/17 01:55:03;;;;;;;;;5.60;4.40;;;;;18.68;77.04;100134.47;4978139;28;8840;-89
2023/08/17 01:57:31;;;;;;;;;6.60;6.60;;;;;18.64;77.13;100138.53;4977236;28;8849;-89
2023/08/17 01:59:58;;;;;;;;;8.20;7.40;;;;;18.61;77.20;100140.72;4978379;28;8844;-89
2023/08/17 02:02:26;;;;;;;;;6.60;6.20;;;;;18.60;76.85;100137.16;4977402;28;8871;-89
2023/08/17 02:04:57;;;;;;;;;9.60;9.00;;;;;18.58;77.24;100139.19;4978021;28;8836;-89
2023/08/17 02:07:25;;;;;;;;;7.80;7.80;;;;;18.56;77.00;100135.84;4977688;28;8845;-89
2023/08/17 02:09:53;;;;;;;;;6.60;6.40;;;;;18.55;77.22;100125.19;4977366;28;8963;-90
2023/08/17 02:12:21;;;;;;;;;6.60;5.60;;;;;18.53;77.20;100128.06;4977248;28;8852;-89
2023/08/17 02:14:48;;;;;;;;;4.40;4.00;;;;;18.51;77.08;100127.38;4977317;28;8886;-89
2023/08/17 02:17:18;;;;;;;;;7.40;7.00;;;;;18.51;77.00;100123.88;4977663;28;8879;-89
2023/08/17 02:19:47;;;;;;;;;10.40;9.40;;;;;18.50;77.30;100120.31;4977859;28;8841;-89
2023/08/17 02:22:15;;;;;;;;;6.60;6.60;;;;;18.51;77.47;100115.78;4977576;28;8841;-88
2023/08/17 02:24:42;;;;;;;;;8.20;7.00;;;;;18.51;77.16;100115.78;4977261;28;8877;-88
2023/08/17 02:27:10;;;;;;;;;9.60;9.60;;;;;18.54;76.92;100121.69;4977469;28;8845;-88
2023/08/17 02:29:38;;;;;;;;;9.80;9.80;;;;;18.56;77.01;100118.78;4977740;28;9573;-88
2023/08/17 02:32:06;;;;;;;;;10.00;10.00;;;;;18.56;77.19;100119.66;4977278;28;8880;-89
2023/08/17 02:34:33;;;;;;;;;6.60;6.60;;;;;18.59;77.42;100116.59;4977331;28;8844;-89
2023/08/17 02:37:01;;;;;;;;;14.00;11.40;;;;;18.60;76.97;100110.19;4977126;28;8834;-88
2023/08/17 02:39:28;;;;;;;;;13.00;11.60;;;;;18.58;77.07;100114.91;4977743;28;8843;-88
2023/08/17 02:41:56;;;;;;;;;6.20;5.60;;;;;18.58;76.87;100114.09;4976753;28;8848;-88
2023/08/17 02:44:24;;;;;;;;;11.20;9.20;;;;;18.57;77.19;100104.28;4977194;28;8891;-88
2023/08/17 02:46:51;;;;;;;;;8.20;7.80;;;;;18.55;77.11;100107.19;4977106;28;8832;-88
2023/08/17 02:49:21;;;;;;;;;12.20;12.00;;;;;18.56;77.00;100105.31;4976922;28;8847;-89
2023/08/17 02:51:48;;;;;;;;;9.00;9.00;;;;;18.55;77.29;100103.63;4977315;28;8871;-89
2023/08/17 02:54:16;;;;;;;;;9.20;9.20;;;;;18.53;76.91;100102.94;4977201;28;8868;-88
2023/08/17 02:56:44;;;;;;;;;7.80;7.40;;;;;18.52;77.22;100103.97;4977358;28;8856;-89
2023/08/17 02:59:11;;;;;;;;;9.40;7.80;;;;;18.51;77.59;100100.41;4977140;28;8841;-89
2023/08/17 03:01:39;;;;;;;;;15.20;12.60;;;;;18.51;77.25;100113.91;4976949;28;8855;-89
2023/08/17 03:04:07;;;;;;;;;15.60;13.60;;;;;18.48;77.13;100108.00;4976839;28;8863;-89
2023/08/17 03:06:34;;;;;;;;;14.60;13.40;;;;;18.46;77.51;100115.44;4976968;28;9547;-89
2023/08/17 03:09:02;;;;;;;;;15.00;15.00;;;;;18.44;77.59;100126.38;4978322;28;8862;-88
2023/08/17 03:11:30;;;;;;;;;13.60;11.20;;;;;18.43;77.50;100126.56;4980606;28;8844;-88
2023/08/17 03:13:59;;;;;;;;;16.40;15.40;;;;;18.40;77.73;100127.72;4980683;28;8837;-88
2023/08/17 03:16:29;;;;;;;;;15.20;12.60;;;;;18.39;76.93;100131.44;4980502;28;8860;-88
2023/08/17 03:18:58;;;;;;;;;12.60;12.60;;;;;18.34;77.34;100125.69;4980543;28;8836;-88
2023/08/17 03:21:26;;;;;;;;;14.80;13.80;;;;;18.32;77.75;100126.88;4980358;28;9530;-88
2023/08/17 03:23:54;;;;;;;;;18.20;15.60;;;;;18.32;77.42;100122.34;4979907;28;8891;-88
2023/08/17 03:26:22;;;;;;;;;8.60;6.60;;;;;18.31;77.70;100123.34;4979977;28;8871;-88
2023/08/17 03:28:49;;;;;;;;;17.80;15.00;;;;;18.33;77.81;100121.31;4980304;28;9489;-88
2023/08/17 03:31:17;;;;;;;;;16.40;15.60;;;;;18.36;77.22;100117.44;4980587;28;8848;-88
2023/08/17 03:33:46;;;;;;;;;16.40;15.00;;;;;18.39;77.40;100117.97;4980350;28;8848;-88
2023/08/17 03:36:14;;;;;;;;;13.80;12.80;;;;;18.43;77.80;100113.91;4980401;28;8836;-88
2023/08/17 03:38:41;;;;;;;;;10.80;10.40;;;;;18.45;77.16;100125.34;4979897;28;8840;-88
2023/08/17 03:41:09;;;;;;;;;9.60;9.40;;;;;18.42;77.36;100122.16;4980015;28;8883;-88
2023/08/17 03:43:36;;;;;;;;;9.60;9.00;;;;;18.40;77.36;100122.34;4979916;28;8828;-88
2023/08/17 03:46:04;;;;;;;;;19.00;17.20;;;;;18.39;77.15;100117.09;4979995;28;8847;-88
2023/08/17 03:48:32;;;;;;;;;16.00;15.80;;;;;18.39;77.22;100117.09;4979519;28;8955;-88
2023/08/17 03:51:01;;;;;;;;;15.00;12.80;;;;;18.39;77.49;100122.50;4980106;28;8845;-88
2023/08/17 03:53:29;;;;;;;;;9.40;9.20;;;;;18.38;77.65;100116.25;4979521;28;8832;-88
2023/08/17 03:55:56;;;;;;;;;12.80;10.80;;;;;18.41;77.14;100120.47;4960191;28;8891;-88
2023/08/17 03:58:26;;;;;;;;;12.60;12.40;;;;;18.41;77.37;100115.06;4959879;28;8986;-87
2023/08/17 04:00:54;;;;;;;;;14.60;10.80;;;;;18.42;77.01;100117.63;4960250;28;8868;-88
2023/08/17 04:03:21;;;;;;;;;10.00;9.80;;;;;18.43;77.29;100110.38;4959827;28;8869;-88
2023/08/17 04:05:49;;;;;;;;;13.00;12.60;;;;;18.43;77.04;100107.69;4960357;28;8868;-88
2023/08/17 04:08:16;;;;;;;;;15.40;12.80;;;;;18.41;77.52;100109.69;4960143;28;8897;-88
2023/08/17 04:10:44;;;;;;;;;11.60;10.00;;;;;18.39;77.69;100117.09;4960196;28;8853;-88
2023/08/17 04:13:12;;;;;;;;;12.60;12.20;;;;;18.38;77.17;100115.41;4959828;28;8871;-88
2023/08/17 04:15:40;;;;;;;;;15.40;14.20;;;;;18.38;77.75;100116.25;4960075;28;8868;-88
2023/08/17 04:18:11;;;;;;;;;10.00;10.00;;;;;18.37;77.30;100119.97;4959703;28;8853;-88
2023/08/17 04:20:38;;;;;;;;;10.40;10.40;;;;;18.35;77.16;100111.19;4958799;28;8987;-88
2023/08/17 04:23:06;;;;;;;;;7.00;6.80;;;;;18.32;77.27;100108.00;4961105;28;8873;-88
2023/08/17 04:25:33;;;;;;;;;14.00;11.60;;;;;18.32;77.45;100114.25;4959996;28;8853;-88
2023/08/17 04:28:01;;;;;;;;;10.00;10.00;;;;;18.33;77.70;100117.75;4959808;28;8888;-88
2023/08/17 04:30:29;;;;;;;;;10.00;9.00;;;;;18.33;77.54;100115.94;4960005;28;8872;-88
2023/08/17 04:32:56;;;;;;;;;15.60;12.60;;;;;18.36;77.22;100117.44;4959531;28;9612;-88
2023/08/17 04:35:24;;;;;;;;;12.00;11.20;;;;;18.35;77.07;100127.38;4959725;28;8865;-88
2023/08/17 04:37:51;;;;;;;;;16.00;11.20;;;;;18.36;77.69;100123.66;4959634;28;9507;-88
2023/08/17 04:40:23;;;;;;;;;9.80;9.80;;;;;18.36;77.19;100120.97;4959403;28;9527;-88
2023/08/17 04:42:50;;;;;;;;;8.40;7.80;;;;;18.36;77.20;100120.97;4959452;28;8880;-88
2023/08/17 04:45:18;;;;;;;;;13.20;12.20;;;;;18.37;77.97;100119.97;4959166;28;8875;-88
2023/08/17 04:47:46;;;;;;;;;15.00;13.00;;;;;18.38;77.79;100118.13;4959430;28;8853;-88
2023/08/17 04:50:16;;;;;;;;;12.20;10.40;;;;;18.40;77.14;100118.78;4958696;28;8876;-88
2023/08/17 04:52:43;;;;;;;;;14.40;12.00;;;;;18.40;77.11;100121.47;4959292;28;8888;-88
2023/08/17 04:55:11;;;;;;;;;10.80;9.40;;;;;18.39;77.21;100120.66;4972653;28;9539;-88
2023/08/17 04:57:39;;;;;;;;;9.40;8.00;;;;;18.41;77.02;100115.06;4978907;28;8926;-88
2023/08/17 05:00:09;;;;;;;;;15.60;15.00;;;;;18.43;77.54;100124.69;4978499;28;8877;-88
2023/08/17 05:02:40;;;;;;;;;18.40;15.80;;;;;18.45;77.49;100121.84;4978046;28;8849;-90
2023/08/17 05:05:08;;;;;;;;;13.80;12.80;;;;;18.46;77.69;100124.38;4978041;28;8836;-88
2023/08/17 05:07:36;;;;;;;;;12.80;12.00;;;;;18.48;77.06;100119.66;4978047;28;8864;-88
2023/08/17 05:10:03;;;;;;;;;12.60;11.20;;;;;18.48;76.95;100122.34;4978437;28;8852;-88
2023/08/17 05:12:31;;;;;;;;;13.00;12.00;;;;;18.49;76.94;100124.03;4977565;28;8861;-88
2023/08/17 05:14:59;;;;;;;;;14.00;12.20;;;;;18.49;77.20;100124.03;4977815;28;8867;-88
2023/08/17 05:17:26;;;;;;;;;15.20;13.40;;;;;18.48;77.35;100122.34;4977767;28;8938;-89
2023/08/17 05:19:55;;;;;;;;;11.60;9.80;;;;;18.49;77.27;100125.88;4977542;28;8860;-88
2023/08/17 05:22:23;;;;;;;;;13.80;13.00;;;;;18.49;77.52;100133.97;4976809;28;8856;-88
2023/08/17 05:24:51;;;;;;;;;15.40;14.20;;;;;18.49;77.02;100139.34;4976894;28;8994;-88
2023/08/17 05:27:19;;;;;;;;;12.40;11.20;;;;;18.53;77.46;100138.84;4976438;28;8851;-88
2023/08/17 05:29:46;;;;;;;;;12.20;12.00;;;;;18.53;76.86;100136.16;4976717;28;8863;-89
2023/08/17 05:32:14;;;;;;;;;13.00;12.20;;;;;18.54;77.01;100132.47;4976395;28;8915;-88
2023/08/17 05:34:42;;;;;;;;;16.40;15.60;;;;;18.54;77.65;100132.47;4975827;28;8871;-88
2023/08/17 05:37:09;;;;;;;;;15.60;15.00;;;;;18.55;77.47;100130.59;4976274;28;8987;-88
2023/08/17 05:39:37;;;;;;;;;15.00;13.00;;;;;18.56;77.17;100132.28;4976584;28;8844;-89
2023/08/17 05:42:05;;;;;;;;;14.60;11.80;;;;;18.56;77.29;100127.75;4976643;28;8825;-88
2023/08/17 05:44:33;;;;;;;;;15.40;14.20;;;;;18.58;76.96;100127.59;4976825;28;8860;-88
2023/08/17 05:47:01;;;;;;;;;12.60;12.00;;;;;18.58;77.16;100133.81;4976480;28;8863;-90
2023/08/17 05:49:29;;;;;;;;;15.40;13.40;;;;;18.60;77.50;100141.75;4976453;28;8855;-88
2023/08/17 05:51:56;;;;;;;;;15.00;12.80;;;;;18.59;77.31;100132.78;4976746;28;8833;-88
2023/08/17 05:54:24;;;;;;;;;15.40;14.60;;;;;18.60;76.88;100139.03;4976546;28;8860;-88
2023/08/17 05:56:52;;;;;;;;;14.20;13.80;;;;;18.59;77.11;100135.47;4976111;28;8874;-88
2023/08/17 05:59:19;;;;;;;;;16.40;14.60;;;;;18.64;77.24;100138.53;4975178;28;8876;-88
2023/08/17 06:01:48;;;;;;;;;15.80;12.40;;;;;18.65;76.72;100140.22;4975718;28;8825;-89
2023/08/17 06:04:16;;;;;;;;;20.00;15.80;;;;;18.64;77.28;100146.63;4975846;28;8930;-88
2023/08/17 06:06:43;;;;;;;;;15.80;14.20;;;;;18.67;76.79;100148.97;4975161;28;8860;-88
2023/08/17 06:09:11;;;;;;;;;18.40;15.60;;;;;18.68;77.15;100152.53;4974253;28;8856;-88
2023/08/17 06:11:39;;;;;;;;;16.00;15.80;;;;;18.67;77.01;100148.16;4974702;28;8883;-87
2023/08/17 06:14:07;;;;;;;;;9.40;9.00;;;;;18.67;76.89;100150.84;4975103;28;8922;-88
2023/08/17 06:16:35;;;;;;;;;14.60;13.80;;;;;18.67;77.32;100151.69;4975224;28;8856;-88
2023/08/17 06:19:03;;;;;;;;;13.00;12.40;;;;;18.68;76.73;100149.84;4974990;28;8848;-88
2023/08/17 06:21:31;;;;;;;;;13.00;10.80;;;;;18.70;76.91;100159.44;4975857;28;8852;-88
2023/08/17 06:23:59;;;;;;;;;15.00;13.60;;;;;18.70;77.00;100150.50;4975648;28;8880;-89
2023/08/17 06:26:27;;;;;;;;;17.40;16.40;;;;;18.70;76.78;100159.44;4976309;28;8840;-88
2023/08/17 06:28:56;;;;;;;;;11.20;9.60;;;;;18.69;77.36;100152.38;4975944;28;8857;-88
2023/08/17 06:31:27;;;;;;;;;12.00;10.80;;;;;18.67;77.06;100148.97;4975219;28;8856;-88
2023/08/17 06:33:54;;;;;;;;;9.20;9.00;;;;;18.70;77.05;100153.19;4975802;28;8845;-88
2023/08/17 06:36:22;;;;;;;;;13.80;13.20;;;;;18.71;76.96;100154.88;4975644;28;8858;-88
2023/08/17 06:38:50;;;;;;;;;13.20;12.60;;;;;18.70;77.39;100155.91;4975433;28;8864;-88
2023/08/17 06:41:18;;;;;;;;;15.00;13.00;;;;;18.69;77.23;100151.50;4975882;28;8868;-88
2023/08/17 06:43:45;;;;;;;;;9.20;9.00;;;;;18.69;77.31;100146.97;4974596;28;8859;-88
2023/08/17 06:46:13;;;;;;;;;12.40;11.20;;;;;18.66;76.97;100157.25;4975336;28;8868;-88
2023/08/17 06:48:41;;;;;;;;;12.20;11.60;;;;;18.64;77.65;100154.72;4975802;28;8875;-88
2023/08/17 06:51:11;;;;;;;;;10.60;8.20;;;;;18.62;77.25;100156.75;4975042;28;8852;-88
2023/08/17 06:53:38;;;;;;;;;9.40;9.20;;;;;18.60;77.18;100157.91;4974851;28;8976;-88
2023/08/17 06:56:06;;;;;;;;;13.40;12.00;;;;;18.60;77.34;100149.84;4975970;28;8845;-88
2023/08/17 06:58:34;;;;;;;;;13.00;12.60;;;;;18.60;77.55;100153.34;4975199;28;8867;-88
2023/08/17 07:01:01;;;;;;;;;10.00;10.00;;;;;18.60;77.69;100158.75;4975341;28;8982;-87
2023/08/17 07:03:29;;;;;;;;;15.00;13.40;;;;;18.64;77.58;100160.13;4975325;28;8859;-89
2023/08/17 07:05:57;;;;;;;;;18.40;15.20;;;;;18.68;77.54;100157.94;4974699;28;8832;-87
2023/08/17 07:08:25;;;;;;;;;10.40;9.00;;;;;18.68;77.08;100153.34;4976178;28;8976;-88
2023/08/17 07:10:52;;;;;;;;;15.00;15.00;;;;;18.64;77.51;100149.31;4976155;28;8867;-88
2023/08/17 07:13:21;;;;;;;;;17.60;15.40;;;;;18.62;77.63;100155.91;4975091;28;8869;-88
2023/08/17 07:15:48;;;;;;;;;15.80;12.20;;;;;18.59;77.35;100157.06;4976319;28;8864;-88
2023/08/17 07:18:16;;;;;;;;;15.80;13.40;;;;;18.60;77.92;100157.91;4976079;28;8856;-88
2023/08/17 07:20:44;;;;;;;;;15.80;15.20;;;;;18.62;77.42;100159.44;4975124;28;8852;-88
2023/08/17 07:23:11;;;;;;;;;14.00;12.80;;;;;18.63;77.71;100165.66;4974986;28;8864;-88
2023/08/17 07:25:39;;;;;;;;;12.60;12.00;;;;;18.65;77.68;100174.44;4974794;28;8876;-88
2023/08/17 07:28:07;;;;;;;;;10.80;10.40;;;;;18.68;77.14;100177.63;4974818;28;8836;-88
2023/08/17 07:30:35;;;;;;;;;16.00;12.60;;;;;18.70;77.64;100186.44;4975079;28;8848;-88
2023/08/17 07:33:03;;;;;;;;;14.20;12.80;;;;;18.74;77.17;100185.06;4974249;28;8844;-88
2023/08/17 07:35:31;;;;;;;;;15.20;12.00;;;;;18.76;77.29;100174.94;4974509;28;9175;-88
2023/08/17 07:37:58;;;;;;;;;15.00;13.80;;;;;18.77;76.96;100175.81;4973711;28;8840;-88
2023/08/17 07:40:36;;;;;;;;;16.40;13.00;;;;;18.79;77.40;100181.88;4973877;28;8868;-88
2023/08/17 07:43:04;;;;;;;;;12.80;12.40;;;;;18.82;77.05;100182.38;4974485;28;8844;-88
2023/08/17 07:45:32;;;;;;;;;16.00;13.00;;;;;18.86;77.00;100177.47;4974099;28;8875;-88
2023/08/17 07:48:00;;;;;;;;;18.00;16.20;;;;;18.91;77.26;100178.66;4974583;28;8878;-89
2023/08/17 07:50:28;;;;;;;;;16.00;15.00;;;;;18.98;77.28;100185.06;4973437;28;8836;-88
2023/08/17 07:52:55;;;;;;;;;14.40;13.00;;;;;19.06;76.97;100178.84;4974699;28;8844;-89
2023/08/17 07:55:23;;;;;;;;;15.60;15.20;;;;;19.11;76.49;100180.00;4976846;28;8895;-88
2023/08/17 07:57:51;;;;;;;;;18.00;16.60;;;;;19.13;76.55;100171.75;4978579;28;8963;-88
2023/08/17 08:00:19;;;;;;;;;16.00;14.00;;;;;19.17;76.41;100179.31;4977866;28;8934;-87
2023/08/17 08:02:47;;;;;;;;;18.40;15.60;;;;;19.22;76.72;100185.09;4978440;28;8987;-88
2023/08/17 08:05:15;;;;;;;;;15.40;15.20;;;;;19.25;76.47;100187.44;4977828;28;8868;-88
2023/08/17 08:07:43;;;;;;;;;9.80;9.80;;;;;19.25;76.77;100186.59;4977965;28;8975;-87
2023/08/17 08:10:10;;;;;;;;;14.20;12.60;;;;;19.26;76.49;100189.13;4977522;28;8840;-87
2023/08/17 08:12:38;;;;;;;;;16.20;13.00;;;;;19.31;76.64;100189.47;4977432;28;8947;-88
2023/08/17 08:15:06;;;;;;;;;17.00;15.80;;;;;19.36;76.62;100188.94;4977329;28;8852;-88
2023/08/17 08:17:34;;;;;;;;;15.40;12.80;;;;;19.38;76.18;100193.19;4977470;28;8947;-87
2023/08/17 08:20:05;;;;;;;;;14.60;13.40;;;;;19.42;76.18;100189.09;4977297;28;8848;-88
2023/08/17 08:22:33;;;;;;;;;12.80;12.00;;;;;19.49;76.03;100194.69;4978501;28;8982;-88
2023/08/17 08:25:01;;;;;;;;;18.40;16.80;;;;;19.53;75.87;100194.16;4977448;28;8868;-88
2023/08/17 08:27:29;;;;;;;;;16.80;13.80;;;;;19.55;75.80;100193.97;4976968;28;8950;-88
2023/08/17 08:29:57;;;;;;;;;16.80;16.00;;;;;19.58;75.96;100194.47;4977388;28;8899;-88
2023/08/17 08:32:25;;;;;;;;;7.80;7.00;;;;;19.61;75.62;100188.72;4976903;28;8852;-88
2023/08/17 08:34:55;;;;;;;;;15.40;13.20;;;;;19.67;76.09;100195.28;4976956;28;8848;-88
2023/08/17 08:37:22;;;;;;;;;16.20;14.20;;;;;19.70;76.12;100192.22;4977252;28;9816;-88
2023/08/17 08:39:51;;;;;;;;;12.80;12.80;;;;;19.72;75.69;100182.94;4977551;28;8836;-88
2023/08/17 08:42:22;;;;;;;;;21.20;16.60;;;;;19.73;75.74;100191.91;4977088;28;8852;-88
2023/08/17 08:44:50;;;;;;;;;11.60;11.40;;;;;19.72;75.99;100184.81;4977520;28;9523;-88
2023/08/17 08:47:18;;;;;;;;;9.40;8.60;;;;;19.69;75.94;100186.00;4977136;28;9606;-88
2023/08/17 08:49:46;;;;;;;;;16.00;14.60;;;;;19.69;76.29;100194.09;4977975;28;8883;-89
2023/08/17 08:52:13;;;;;;;;;15.40;14.00;;;;;19.69;76.04;100190.53;4978140;28;8860;-89
2023/08/17 08:54:42;;;;;;;;;12.60;11.60;;;;;19.70;76.54;100192.22;4978135;28;8848;-89
2023/08/17 08:57:10;;;;;;;;;17.00;16.20;;;;;19.71;75.83;100189.38;4977880;28;8837;-90
2023/08/17 08:59:43;;;;;;;;;16.00;13.20;;;;;19.74;76.33;100193.59;4977270;28;8844;-89
2023/08/17 09:02:11;;;;;;;;;19.00;18.00;;;;;19.75;75.87;100201.53;4977440;28;8939;-89
2023/08/17 09:04:40;;;;;;;;;16.40;13.00;;;;;19.76;76.09;100194.25;4977320;28;8869;-88
2023/08/17 09:07:08;;;;;;;;;17.80;16.40;;;;;19.82;75.74;100193.56;4976224;28;8841;-88
2023/08/17 09:09:36;;;;;;;;;14.20;13.20;;;;;19.87;75.58;100191.19;4976128;28;8849;-87
2023/08/17 09:12:04;;;;;;;;;16.80;16.00;;;;;19.92;75.46;100196.88;4976365;28;8852;-87
2023/08/17 09:14:31;;;;;;;;;15.60;14.40;;;;;19.93;75.31;100201.25;4976352;28;8991;-87
2023/08/17 09:16:59;;;;;;;;;13.80;13.40;;;;;19.90;75.57;100191.66;4975195;28;8915;-87
2023/08/17 09:19:27;;;;;;;;;18.00;16.40;;;;;19.89;76.16;100184.53;4974947;28;8922;-88
2023/08/17 09:21:55;;;;;;;;;17.00;12.20;;;;;19.88;75.95;100180.16;4975973;28;9631;-88
2023/08/17 09:24:23;;;;;;;;;17.60;16.00;;;;;19.96;75.84;100172.03;4975614;28;8903;-87
2023/08/17 09:26:52;;;;;;;;;14.80;13.20;;;;;20.03;75.19;100173.00;4975198;28;8872;-89
2023/08/17 09:29:20;;;;;;;;;12.20;11.80;;;;;20.06;75.45;100167.28;4976198;28;8863;-89
2023/08/17 09:31:48;;;;;;;;;14.00;14.00;;;;;20.12;75.05;100161.19;4976660;28;8841;-89
2023/08/17 09:34:17;;;;;;;;;13.00;12.20;;;;;20.17;75.10;100163.34;4976427;28;8867;-90
2023/08/17 09:36:44;;;;;;;;;16.20;14.80;;;;;20.19;75.24;100169.41;4975972;28;8942;-89
2023/08/17 09:39:12;;;;;;;;;18.80;16.60;;;;;20.22;74.94;100164.50;4976489;28;9499;-89
2023/08/17 09:41:44;;;;;;;;;14.20;13.20;;;;;20.26;75.17;100167.69;4975850;28;8887;-89
2023/08/17 09:44:12;;;;;;;;;19.80;17.00;;;;;20.31;74.81;100168.81;4976546;28;8852;-90
2023/08/17 09:46:40;;;;;;;;;14.00;13.00;;;;;20.37;75.00;100172.69;4976969;28;8848;-89
2023/08/17 09:49:11;;;;;;;;;11.20;11.00;;;;;20.42;74.70;100173.84;4976907;28;8853;-90
2023/08/17 09:51:39;;;;;;;;;15.00;13.60;;;;;20.50;74.48;100170.22;4977779;28;8866;-89
2023/08/17 09:54:10;;;;;;;;;18.00;14.00;;;;;20.60;74.52;100171.69;4978178;28;8853;-91
2023/08/17 09:56:42;;;;;;;;;14.80;11.00;;;;;20.72;74.52;100169.41;4977253;28;8876;-90
2023/08/17 09:59:10;;;;;;;;;10.80;10.80;;;;;20.84;73.68;100175.06;4976739;28;9546;-90
2023/08/17 10:01:37;;;;;;;;;10.00;9.20;;;;;20.91;73.96;100180.59;4974949;28;8848;-89
2023/08/17 10:04:05;;;;;;;;;10.80;10.80;;;;;20.92;74.05;100185.00;4975928;28;8902;-89
2023/08/17 10:06:38;;;;;;;;;15.20;13.80;;;;;20.91;73.63;100177.91;4975657;28;8891;-90
2023/08/17 10:09:06;;;;;;;;;14.80;14.40;;;;;20.86;73.82;100182.97;4976181;28;8860;-89
2023/08/17 10:11:34;;;;;;;;;10.80;9.60;;;;;20.81;74.01;100180.00;4975921;28;9558;-90
2023/08/17 10:14:02;;;;;;;;;11.80;11.00;;;;;20.76;74.23;100182.38;4976337;28;8839;-89
2023/08/17 10:16:30;;;;;;;;;12.20;11.40;;;;;20.72;74.23;100174.81;4976410;28;8852;-90
2023/08/17 10:18:58;;;;;;;;;12.00;10.60;;;;;20.68;74.68;100182.44;4975172;28;8828;-90
2023/08/17 10:21:26;;;;;;;;;9.40;9.40;;;;;20.66;75.01;100181.78;4975685;28;8860;-89
2023/08/17 10:23:54;;;;;;;;;17.00;13.80;;;;;20.66;74.59;100180.94;4974547;28;8860;-89
2023/08/17 10:26:22;;;;;;;;;17.60;16.00;;;;;20.67;74.66;100165.34;4974640;28;8872;-89
2023/08/17 10:28:50;;;;;;;;;15.60;12.60;;;;;20.73;74.96;100162.94;4974764;28;8837;-90
2023/08/17 10:31:20;;;;;;;;;11.00;8.60;;;;;20.85;74.58;100159.63;4975841;28;8860;-90
2023/08/17 10:33:48;;;;;;;;;16.80;13.40;;;;;21.04;74.07;100160.00;4975704;28;8988;-90
2023/08/17 10:36:16;;;;;;;;;11.60;9.80;;;;;21.25;73.15;100153.91;4975801;28;8852;-89
2023/08/17 10:38:44;;;;;;;;;11.00;9.40;;;;;21.43;73.19;100159.78;4975304;28;8927;-89
2023/08/17 10:41:12;;;;;;;;;11.80;10.80;;;;;21.61;72.29;100152.13;4974744;28;8923;-89
2023/08/17 10:43:45;;;;;;;;;10.00;8.60;;;;;21.72;72.47;100157.94;4974788;28;8863;-89
2023/08/17 10:46:13;;;;;;;;;11.80;10.00;;;;;21.76;72.42;100152.97;4974908;28;8860;-90
2023/08/17 10:48:41;;;;;;;;;9.40;9.40;;;;;21.76;72.51;100159.25;4974444;28;9604;-89
2023/08/17 10:51:12;;;;;;;;;11.00;9.60;;;;;21.74;72.42;100157.75;4974876;28;8864;-90
2023/08/17 10:53:42;;;;;;;;;7.40;7.40;;;;;21.68;72.59;100163.94;4974426;28;8935;-89
2023/08/17 10:56:11;;;;;;;;;11.20;11.20;;;;;21.64;72.61;100154.47;4975262;28;8980;-89
2023/08/17 10:58:38;;;;;;;;;10.60;9.60;;;;;21.58;72.64;100155.22;4974788;28;8927;-90
2023/08/17 11:01:07;;;;;;;;;11.20;9.80;;;;;21.51;72.94;100157.84;4974814;28;8998;-90
2023/08/17 11:03:36;;;;;;;;;8.80;8.80;;;;;21.47;73.68;100152.94;4975285;28;8845;-89
2023/08/17 11:06:04;;;;;;;;;8.00;8.00;;;;;21.39;73.35;100162.03;4974971;28;8868;-90
2023/08/17 11:08:32;;;;;;;;;10.00;9.80;;;;;21.35;73.58;100168.81;4973591;28;8894;-89
2023/08/17 11:11:00;;;;;;;;;9.40;8.00;;;;;21.31;73.73;100166.69;4974351;28;8860;-89
2023/08/17 11:13:28;;;;;;;;;9.00;9.00;;;;;21.27;73.77;100166.19;4973519;28;9924;-89
2023/08/17 11:15:56;;;;;;;;;13.60;11.20;;;;;21.23;73.91;100162.19;4973659;28;8832;-89
2023/08/17 11:18:29;;;;;;;;;12.00;9.80;;;;;21.23;73.80;100164.06;4974520;28;8821;-89
2023/08/17 11:20:57;;;;;;;;;13.60;13.60;;;;;21.19;74.31;100160.88;4973498;28;8871;-89
2023/08/17 11:23:25;;;;;;;;;11.00;11.00;;;;;21.19;74.07;100158.16;4973842;28;8950;-89
2023/08/17 11:25:54;;;;;;;;;10.60;9.40;;;;;21.19;74.03;100165.47;4973918;28;8951;-89